createdAt,value
2018-03-27T00:02:10.669Z,5.50
2018-03-27T00:04:38.204Z,5.40
2018-03-27T00:07:06.480Z,5.30
2018-03-27T00:09:33.926Z,5.30
2018-03-27T00:12:01.395Z,5.30
2018-03-27T00:14:28.846Z,5.20
2018-03-27T00:16:56.301Z,5.20
2018-03-27T00:19:23.783Z,5.20
2018-03-27T00:21:51.236Z,5.30
2018-03-27T00:24:19.452Z,5.40
2018-03-27T00:26:58.805Z,5.40
2018-03-27T00:29:38.058Z,5.50
2018-03-27T00:32:17.494Z,5.50
2018-03-27T00:34:56.942Z,5.40
2018-03-27T00:37:36.413Z,5.40
2018-03-27T00:40:15.806Z,5.40
2018-03-27T00:45:42.665Z,5.50
2018-03-27T00:48:10.126Z,5.60
2018-03-27T00:50:37.574Z,5.60
2018-03-27T00:53:05.026Z,5.60
2018-03-27T00:55:32.494Z,5.60
2018-03-27T00:57:59.946Z,5.50
2018-03-27T01:00:28.158Z,5.30
2018-03-27T01:02:55.640Z,5.30
2018-03-27T01:05:23.192Z,5.20
2018-03-27T01:07:51.405Z,5.00
2018-03-27T01:10:18.881Z,5.00
2018-03-27T01:12:46.329Z,4.90
2018-03-27T01:15:13.892Z,4.80
2018-03-27T01:17:41.405Z,4.70
2018-03-27T01:20:08.846Z,4.70
2018-03-27T01:22:36.300Z,4.60
2018-03-27T01:25:03.791Z,4.60
2018-03-27T01:27:31.278Z,4.50
2018-03-27T01:29:58.729Z,4.50
2018-03-27T01:32:26.522Z,4.50
2018-03-27T01:34:53.978Z,4.40
2018-03-27T01:37:21.429Z,4.30
2018-03-27T01:39:48.902Z,4.30
2018-03-27T01:42:16.349Z,4.20
2018-03-27T01:44:44.563Z,4.10
2018-03-27T01:47:12.062Z,4.10
2018-03-27T01:49:39.533Z,4.10
2018-03-27T01:52:06.986Z,4.00
2018-03-27T01:54:34.474Z,4.00
2018-03-27T01:57:01.942Z,3.90
2018-03-27T01:59:29.420Z,3.80
2018-03-27T02:01:56.979Z,3.80
2018-03-27T02:04:24.430Z,3.70
2018-03-27T02:06:51.913Z,3.70
2018-03-27T02:09:19.373Z,3.60
2018-03-27T02:11:52.559Z,3.60
2018-03-27T02:14:25.836Z,3.50
2018-03-27T02:16:59.029Z,3.50
2018-03-27T02:19:32.286Z,3.40
2018-03-27T02:21:59.273Z,3.40
2018-03-27T02:24:26.733Z,3.40
2018-03-27T02:26:54.220Z,3.40
2018-03-27T02:29:21.674Z,3.30
2018-03-27T02:31:49.154Z,3.30
2018-03-27T02:34:16.579Z,3.20
2018-03-27T02:36:44.053Z,3.20
2018-03-27T02:39:11.505Z,3.20
2018-03-27T02:41:39.751Z,3.10
2018-03-27T02:44:07.322Z,3.10
2018-03-27T02:46:34.774Z,3.10
2018-03-27T02:49:02.225Z,3.10
2018-03-27T02:51:29.694Z,3.00
2018-03-27T02:53:57.142Z,3.00
2018-03-27T02:56:25.381Z,2.90
2018-03-27T02:58:52.845Z,2.90
2018-03-27T03:01:20.295Z,2.90
2018-03-27T03:03:47.751Z,2.80
2018-03-27T03:06:15.338Z,2.80
2018-03-27T03:08:42.847Z,2.70
2018-03-27T03:11:10.291Z,2.70
2018-03-27T03:13:37.762Z,2.60
2018-03-27T03:16:05.214Z,2.60
2018-03-27T03:18:32.662Z,2.50
2018-03-27T03:21:00.906Z,2.50
2018-03-27T03:23:28.360Z,2.50
2018-03-27T03:25:55.846Z,2.50
2018-03-27T03:28:23.324Z,2.40
2018-03-27T03:30:50.790Z,2.40
2018-03-27T03:33:18.248Z,2.40
2018-03-27T03:35:45.713Z,2.30
2018-03-27T03:38:13.171Z,2.30
2018-03-27T03:40:40.621Z,2.20
2018-03-27T03:43:08.092Z,2.20
2018-03-27T03:45:35.606Z,2.20
2018-03-27T03:48:03.067Z,2.20
2018-03-27T03:50:30.538Z,2.20
2018-03-27T03:52:57.999Z,2.10
2018-03-27T03:55:25.459Z,2.10
2018-03-27T03:57:52.926Z,2.10
2018-03-27T04:00:20.397Z,2.10
2018-03-27T04:02:47.834Z,2.20
2018-03-27T04:05:16.061Z,2.20
2018-03-27T04:07:43.518Z,2.10
2018-03-27T04:10:11.014Z,2.10
2018-03-27T04:12:38.493Z,2.10
2018-03-27T04:15:05.961Z,2.10
2018-03-27T04:17:33.416Z,2.10
2018-03-27T04:20:00.995Z,2.00
2018-03-27T04:22:28.438Z,2.00
2018-03-27T04:24:55.895Z,2.00
2018-03-27T04:27:23.422Z,1.90
2018-03-27T04:29:50.977Z,1.90
2018-03-27T04:32:18.425Z,1.90
2018-03-27T04:34:45.898Z,1.90
2018-03-27T04:37:13.390Z,1.90
2018-03-27T04:39:40.869Z,1.90
2018-03-27T04:42:08.435Z,2.00
2018-03-27T04:44:35.921Z,2.00
2018-03-27T04:47:03.471Z,2.00
2018-03-27T04:49:30.942Z,2.00
2018-03-27T04:51:58.409Z,2.00
2018-03-27T04:54:25.870Z,2.40
2018-03-27T04:57:47.314Z,2.40
2018-03-27T05:00:14.758Z,2.30
2018-03-27T05:02:42.206Z,2.40
2018-03-27T05:05:10.512Z,2.40
2018-03-27T05:07:38.726Z,2.40
2018-03-27T05:10:06.206Z,2.40
2018-03-27T05:12:33.986Z,2.50
2018-03-27T05:15:01.438Z,2.40
2018-03-27T05:17:28.902Z,2.50
2018-03-27T05:19:56.366Z,2.40
2018-03-27T05:22:23.822Z,2.40
2018-03-27T05:24:51.266Z,2.20
2018-03-27T05:27:18.730Z,2.20
2018-03-27T05:29:46.186Z,2.10
2018-03-27T05:32:14.263Z,2.20
2018-03-27T05:34:41.735Z,2.20
2018-03-27T05:37:09.189Z,2.10
2018-03-27T05:39:36.638Z,2.10
2018-03-27T05:42:04.139Z,2.10
2018-03-27T05:44:31.590Z,2.20
2018-03-27T05:46:59.050Z,2.10
2018-03-27T05:49:27.015Z,2.20
2018-03-27T05:51:54.465Z,2.10
2018-03-27T05:54:22.698Z,2.20
2018-03-27T05:56:50.178Z,2.20
2018-03-27T05:59:17.638Z,2.30
2018-03-27T06:01:45.098Z,2.30
2018-03-27T06:04:12.547Z,2.30
2018-03-27T06:06:40.123Z,2.30
2018-03-27T06:09:07.574Z,2.30
2018-03-27T06:11:35.786Z,2.40
2018-03-27T06:14:03.290Z,2.40
2018-03-27T06:16:30.750Z,2.50
2018-03-27T06:18:58.221Z,2.60
2018-03-27T06:21:25.702Z,2.70
2018-03-27T06:23:53.166Z,2.80
2018-03-27T06:26:20.633Z,3.00
2018-03-27T06:28:48.091Z,3.20
2018-03-27T06:31:15.553Z,3.40
2018-03-27T06:33:43.012Z,3.60
2018-03-27T06:36:10.514Z,3.80
2018-03-27T06:38:37.966Z,4.10
2018-03-27T06:41:05.421Z,4.30
2018-03-27T06:43:32.887Z,4.50
2018-03-27T06:46:00.339Z,4.70
2018-03-27T06:48:28.562Z,5.20
2018-03-27T06:50:56.030Z,5.20
2018-03-27T06:53:23.490Z,5.40
2018-03-27T06:55:50.984Z,5.60
2018-03-27T06:58:18.439Z,5.80
2018-03-27T07:00:45.982Z,6.10
2018-03-27T07:03:13.398Z,6.20
2018-03-27T07:05:40.940Z,6.40
2018-03-27T07:08:08.684Z,6.60
2018-03-27T07:10:36.114Z,6.80
2018-03-27T07:13:03.571Z,7.00
2018-03-27T07:15:31.046Z,7.30
2018-03-27T07:17:58.550Z,7.40
2018-03-27T07:20:26.019Z,7.70
2018-03-27T07:22:53.466Z,8.00
2018-03-27T07:25:20.930Z,8.40
2018-03-27T07:27:48.412Z,8.60
2018-03-27T07:30:15.859Z,8.70
2018-03-27T07:32:43.326Z,8.60
2018-03-27T07:35:10.813Z,8.50
2018-03-27T07:37:38.270Z,8.90
2018-03-27T07:40:05.730Z,9.10
2018-03-27T07:42:33.196Z,9.10
2018-03-27T07:45:00.695Z,8.90
2018-03-27T07:47:28.142Z,9.00
2018-03-27T07:49:55.702Z,9.20
2018-03-27T07:52:23.219Z,9.00
2018-03-27T07:54:50.678Z,9.00
2018-03-27T07:57:18.255Z,8.80
2018-03-27T07:59:45.728Z,8.70
2018-03-27T08:02:13.310Z,8.60
2018-03-27T08:04:40.778Z,8.60
2018-03-27T08:07:08.226Z,8.50
2018-03-27T08:09:36.026Z,8.60
2018-03-27T08:12:03.580Z,8.60
2018-03-27T08:14:31.043Z,8.70
2018-03-27T08:16:58.528Z,8.60
2018-03-27T08:19:26.054Z,8.80
2018-03-27T08:21:53.513Z,8.70
2018-03-27T08:24:21.087Z,8.70
2018-03-27T08:26:49.200Z,8.60
2018-03-27T08:29:16.718Z,8.60
2018-03-27T08:31:44.161Z,8.50
2018-03-27T08:34:11.658Z,8.70
2018-03-27T08:36:39.210Z,8.80
2018-03-27T08:39:06.654Z,9.10
2018-03-27T08:41:34.125Z,9.40
2018-03-27T08:44:01.583Z,9.50
2018-03-27T08:46:29.075Z,9.50
2018-03-27T08:48:56.521Z,9.40
2018-03-27T08:51:23.979Z,9.30
2018-03-27T08:53:51.463Z,9.30
2018-03-27T08:56:18.918Z,9.50
2018-03-27T08:58:46.430Z,9.70
2018-03-27T09:01:13.960Z,10.20
2018-03-27T09:03:41.448Z,10.20
2018-03-27T09:06:09.637Z,9.80
2018-03-27T09:08:37.126Z,9.80
2018-03-27T09:11:04.595Z,9.80
2018-03-27T09:13:32.054Z,10.10
2018-03-27T09:15:59.510Z,10.50
2018-03-27T09:18:26.974Z,10.90
2018-03-27T09:20:54.431Z,11.50
2018-03-27T09:23:21.986Z,12.20
2018-03-27T09:25:50.217Z,12.00
2018-03-27T09:28:17.725Z,12.00
2018-03-27T09:30:45.146Z,11.30
2018-03-27T09:33:12.598Z,10.80
2018-03-27T09:35:40.053Z,10.70
2018-03-27T09:38:08.294Z,10.60
2018-03-27T09:40:35.769Z,10.60
2018-03-27T09:43:03.231Z,10.60
2018-03-27T09:45:30.725Z,10.80
2018-03-27T09:47:58.146Z,10.80
2018-03-27T09:50:25.712Z,10.70
2018-03-27T09:52:53.180Z,10.50
2018-03-27T09:55:21.390Z,10.00
2018-03-27T09:57:48.850Z,10.00
2018-03-27T10:00:16.320Z,9.90
2018-03-27T10:02:43.769Z,10.00
2018-03-27T10:05:12.014Z,10.00
2018-03-27T10:07:39.490Z,10.00
2018-03-27T10:10:06.938Z,9.90
2018-03-27T10:12:34.459Z,10.00
2018-03-27T10:15:02.705Z,10.70
2018-03-27T10:17:30.158Z,10.70
2018-03-27T10:19:57.610Z,11.10
2018-03-27T10:22:25.086Z,11.00
2018-03-27T10:24:52.534Z,11.00
2018-03-27T10:27:20.019Z,10.80
2018-03-27T10:29:48.275Z,11.10
2018-03-27T10:32:16.492Z,11.50
2018-03-27T10:34:43.952Z,11.40
2018-03-27T10:37:12.282Z,11.90
2018-03-27T10:39:39.750Z,11.90
2018-03-27T10:42:07.201Z,12.10
2018-03-27T10:44:34.677Z,12.00
2018-03-27T10:47:02.233Z,12.00
2018-03-27T10:49:29.687Z,12.00
2018-03-27T10:51:57.923Z,11.20
2018-03-27T10:54:25.377Z,11.10
2018-03-27T10:56:52.926Z,11.20
2018-03-27T10:59:21.226Z,11.40
2018-03-27T11:01:48.721Z,11.40
2018-03-27T11:04:16.194Z,11.80
2018-03-27T11:06:43.658Z,12.00
2018-03-27T11:09:11.136Z,12.10
2018-03-27T11:11:38.618Z,12.40
2018-03-27T11:14:06.070Z,13.00
2018-03-27T11:16:33.545Z,13.80
2018-03-27T11:19:01.038Z,14.40
2018-03-27T11:21:28.502Z,15.20
2018-03-27T11:23:55.958Z,15.60
2018-03-27T11:26:23.414Z,16.70
2018-03-27T11:28:50.872Z,16.40
2018-03-27T11:31:18.338Z,16.20
2018-03-27T11:33:45.791Z,15.20
2018-03-27T11:36:13.286Z,14.50
2018-03-27T11:38:40.726Z,13.90
2018-03-27T11:41:08.186Z,13.40
2018-03-27T11:43:36.434Z,12.90
2018-03-27T11:46:03.914Z,12.80
2018-03-27T11:48:31.386Z,12.80
2018-03-27T11:50:58.938Z,12.80
2018-03-27T11:53:26.386Z,12.70
2018-03-27T11:55:53.858Z,13.40
2018-03-27T11:58:21.306Z,13.90
2018-03-27T12:00:48.883Z,14.10
2018-03-27T12:03:17.113Z,14.80
2018-03-27T12:05:44.578Z,14.80
2018-03-27T12:08:12.069Z,16.00
2018-03-27T12:10:39.589Z,16.30
2018-03-27T12:13:07.098Z,16.70
2018-03-27T12:15:34.574Z,16.10
2018-03-27T12:18:02.096Z,15.80
2018-03-27T12:20:29.664Z,15.40
2018-03-27T12:22:57.882Z,15.10
2018-03-27T12:25:25.362Z,15.00
2018-03-27T12:27:52.834Z,15.40
2018-03-27T12:30:20.370Z,15.40
2018-03-27T12:32:47.859Z,14.80
2018-03-27T12:35:15.320Z,14.50
2018-03-27T12:37:42.921Z,13.80
2018-03-27T12:40:10.392Z,13.60
2018-03-27T12:42:37.860Z,13.50
2018-03-27T12:45:05.430Z,13.20
2018-03-27T12:47:32.903Z,13.00
2018-03-27T12:50:00.375Z,12.80
2018-03-27T12:52:27.827Z,12.60
2018-03-27T12:54:55.287Z,12.60
2018-03-27T12:57:22.762Z,12.50
2018-03-27T12:59:50.282Z,12.50
2018-03-27T13:02:18.026Z,12.60
2018-03-27T13:04:45.490Z,12.40
2018-03-27T13:07:12.955Z,12.30
2018-03-27T13:09:40.434Z,12.10
2018-03-27T13:12:07.918Z,12.10
2018-03-27T13:14:35.777Z,12.10
2018-03-27T13:17:03.230Z,12.00
2018-03-27T13:19:30.722Z,12.00
2018-03-27T13:21:58.188Z,12.00
2018-03-27T13:24:26.068Z,12.00
2018-03-27T13:26:53.536Z,12.10
2018-03-27T13:29:20.982Z,12.10
2018-03-27T13:31:48.482Z,12.20
2018-03-27T13:34:16.063Z,12.10
2018-03-27T13:36:43.514Z,12.00
2018-03-27T13:39:11.002Z,11.90
2018-03-27T13:41:39.710Z,11.80
2018-03-27T13:44:07.254Z,11.70
2018-03-27T13:46:34.727Z,11.60
2018-03-27T13:49:02.214Z,11.60
2018-03-27T13:51:29.678Z,11.50
2018-03-27T13:53:57.134Z,11.50
2018-03-27T13:56:24.634Z,11.50
2018-03-27T13:58:52.143Z,11.60
2018-03-27T14:01:20.375Z,11.60
2018-03-27T14:03:47.941Z,11.60
2018-03-27T14:06:15.398Z,11.70
2018-03-27T14:08:42.867Z,11.70
2018-03-27T14:11:10.322Z,11.80
2018-03-27T14:13:37.849Z,11.80
2018-03-27T14:16:05.318Z,11.80
2018-03-27T14:18:34.286Z,11.60
2018-03-27T14:21:01.794Z,11.60
2018-03-27T14:23:29.323Z,11.60
2018-03-27T14:25:56.794Z,11.50
2018-03-27T14:28:24.270Z,11.40
2018-03-27T14:30:52.506Z,11.10
2018-03-27T14:33:20.730Z,11.00
2018-03-27T14:35:48.250Z,11.00
2018-03-27T14:38:15.734Z,10.90
2018-03-27T14:40:43.191Z,10.90
2018-03-27T14:43:10.750Z,10.80
2018-03-27T14:45:38.197Z,10.70
2018-03-27T14:48:05.712Z,10.60
2018-03-27T14:50:33.950Z,10.60
2018-03-27T14:53:01.414Z,10.60
2018-03-27T14:55:28.893Z,10.50
2018-03-27T14:57:56.380Z,10.50
2018-03-27T15:00:23.950Z,10.40
2018-03-27T15:02:51.429Z,10.30
2018-03-27T15:05:18.906Z,10.40
2018-03-27T15:07:46.353Z,10.40
2018-03-27T15:10:13.814Z,10.40
2018-03-27T15:12:41.282Z,10.40
2018-03-27T15:15:08.740Z,10.40
2018-03-27T15:17:36.218Z,10.30
2018-03-27T15:20:03.674Z,10.30
2018-03-27T15:22:31.153Z,10.20
2018-03-27T15:24:58.597Z,10.10
2018-03-27T15:27:26.842Z,9.90
2018-03-27T15:29:54.472Z,9.90
2018-03-27T15:32:21.909Z,9.90
2018-03-27T15:34:49.370Z,9.80
2018-03-27T15:37:16.828Z,9.70
2018-03-27T15:39:44.303Z,9.60
2018-03-27T15:42:11.751Z,9.60
2018-03-27T15:44:39.239Z,9.60
2018-03-27T15:47:06.709Z,9.50
2018-03-27T15:49:34.174Z,9.40
2018-03-27T15:52:01.679Z,9.40
2018-03-27T15:54:29.925Z,9.30
2018-03-27T15:56:57.397Z,9.30
2018-03-27T15:59:24.878Z,9.30
2018-03-27T16:01:52.341Z,9.20
2018-03-27T16:04:19.817Z,9.20
2018-03-27T16:06:47.266Z,9.20
2018-03-27T16:09:14.735Z,9.10
2018-03-27T16:11:42.190Z,9.10
2018-03-27T16:14:09.685Z,9.10
2018-03-27T16:16:37.143Z,9.00
2018-03-27T16:19:04.586Z,8.90
2018-03-27T16:21:32.054Z,8.80
2018-03-27T16:23:59.497Z,8.70
2018-03-27T16:26:27.732Z,8.60
2018-03-27T16:28:55.190Z,8.60
2018-03-27T16:31:22.663Z,8.60
2018-03-27T16:33:50.225Z,8.50
2018-03-27T16:36:17.711Z,8.40
2018-03-27T16:38:45.198Z,8.40
2018-03-27T16:41:12.646Z,8.30
2018-03-27T16:43:40.120Z,8.30
2018-03-27T16:46:07.611Z,8.30
2018-03-27T16:48:35.185Z,8.30
2018-03-27T16:51:02.654Z,8.20
2018-03-27T16:53:30.107Z,8.20
2018-03-27T16:55:57.602Z,8.20
2018-03-27T16:58:25.046Z,8.10
2018-03-27T17:00:52.518Z,8.00
2018-03-27T17:03:19.969Z,8.00
2018-03-27T17:05:47.433Z,7.90
2018-03-27T17:08:14.905Z,7.90
2018-03-27T17:10:42.429Z,7.90
2018-03-27T17:13:09.890Z,8.00
2018-03-27T17:15:37.388Z,8.10
2018-03-27T17:18:05.616Z,8.20
2018-03-27T17:20:33.075Z,8.20
2018-03-27T17:23:00.543Z,8.10
2018-03-27T17:25:28.753Z,7.90
2018-03-27T17:27:56.214Z,7.90
2018-03-27T17:30:23.674Z,7.90
2018-03-27T17:32:51.139Z,8.00
2018-03-27T17:35:18.585Z,7.90
2018-03-27T17:37:47.805Z,7.80
2018-03-27T17:40:16.014Z,7.80
2018-03-27T17:42:43.471Z,7.80
2018-03-27T17:45:10.990Z,7.80
2018-03-27T17:47:38.462Z,7.80
2018-03-27T17:50:05.922Z,7.70
2018-03-27T17:52:33.374Z,7.70
2018-03-27T17:55:00.827Z,7.80
2018-03-27T17:57:28.333Z,7.70
2018-03-27T17:59:55.785Z,7.70
2018-03-27T18:02:23.250Z,7.70
2018-03-27T18:04:50.700Z,7.60
2018-03-27T18:07:18.198Z,7.60
2018-03-27T18:11:33.790Z,7.60
2018-03-27T18:15:11.345Z,7.70
2018-03-27T18:17:38.826Z,7.70
2018-03-27T18:20:06.400Z,7.60
2018-03-27T18:22:33.846Z,7.60
2018-03-27T18:25:01.298Z,7.60
2018-03-27T18:27:28.769Z,7.60
2018-03-27T18:29:56.219Z,7.60
2018-03-27T18:32:23.678Z,7.70
2018-03-27T18:34:51.921Z,7.80
2018-03-27T18:37:19.457Z,7.80
2018-03-27T18:39:46.870Z,7.80
2018-03-27T18:42:14.326Z,7.70
2018-03-27T18:44:41.806Z,7.70
2018-03-27T18:47:09.262Z,7.60
2018-03-27T18:49:36.725Z,7.60
2018-03-27T18:52:04.203Z,7.60
2018-03-27T18:54:32.180Z,7.60
2018-03-27T18:56:59.829Z,7.50
2018-03-27T18:59:28.048Z,7.50
2018-03-27T19:01:55.517Z,7.50
2018-03-27T19:04:22.966Z,7.50
2018-03-27T19:06:50.457Z,7.40
2018-03-27T19:09:17.897Z,7.50
2018-03-27T19:11:45.619Z,7.50
2018-03-27T19:14:13.066Z,7.40
2018-03-27T19:16:40.650Z,7.50
2018-03-27T19:19:08.236Z,7.60
2018-03-27T19:21:35.687Z,7.60
2018-03-27T19:24:03.169Z,7.70
2018-03-27T19:26:32.174Z,7.70
2018-03-27T19:28:59.701Z,7.70
2018-03-27T19:31:27.171Z,7.70
2018-03-27T19:33:55.384Z,7.70
2018-03-27T19:36:22.850Z,7.70
2018-03-27T19:38:50.301Z,7.80
2018-03-27T19:41:17.759Z,8.00
2018-03-27T19:43:46.061Z,7.90
2018-03-27T19:46:13.531Z,7.90
2018-03-27T19:48:41.009Z,7.80
2018-03-27T19:51:08.465Z,7.70
2018-03-27T19:53:36.049Z,7.60
2018-03-27T19:56:03.499Z,7.60
2018-03-27T19:58:31.805Z,7.50
2018-03-27T20:00:59.306Z,7.60
2018-03-27T20:03:26.775Z,7.60
2018-03-27T20:05:54.255Z,7.70
2018-03-27T20:08:21.699Z,7.70
2018-03-27T20:10:49.174Z,7.70
2018-03-27T20:13:16.669Z,7.60
2018-03-27T20:15:44.233Z,7.60
2018-03-27T20:18:11.698Z,7.60
2018-03-27T20:20:39.167Z,7.50
2018-03-27T20:23:06.633Z,7.50
2018-03-27T20:25:34.086Z,7.40
2018-03-27T20:28:01.590Z,7.40
2018-03-27T20:30:29.082Z,7.40
2018-03-27T20:32:57.326Z,7.40
2018-03-27T20:35:24.781Z,7.40
2018-03-27T20:37:52.242Z,7.50
2018-03-27T20:40:19.711Z,7.50
2018-03-27T20:42:47.227Z,7.40
2018-03-27T20:45:14.671Z,7.30
2018-03-27T20:47:42.147Z,7.30
2018-03-27T20:50:09.623Z,7.50
2018-03-27T20:52:37.094Z,7.50
2018-03-27T20:55:04.546Z,7.50
2018-03-27T20:57:32.014Z,7.50
2018-03-27T20:59:59.459Z,7.40
2018-03-27T21:02:26.939Z,7.40
2018-03-27T21:04:54.441Z,7.40
2018-03-27T21:07:21.942Z,7.40
2018-03-27T21:09:49.386Z,7.40
2018-03-27T21:12:16.837Z,7.40
2018-03-27T21:14:44.302Z,7.40
2018-03-27T21:17:11.762Z,7.40
2018-03-27T21:19:39.219Z,7.40
2018-03-27T21:22:06.669Z,7.40
2018-03-27T21:24:34.907Z,7.30
2018-03-27T21:27:02.362Z,7.30
2018-03-27T21:29:29.810Z,7.30
2018-03-27T21:31:57.274Z,7.20
2018-03-27T21:34:25.491Z,7.10
2018-03-27T21:36:52.982Z,7.10
2018-03-27T21:39:20.442Z,7.10
2018-03-27T21:41:47.988Z,7.10
2018-03-27T21:44:16.218Z,7.20
2018-03-27T21:46:43.686Z,7.10
2018-03-27T21:49:11.145Z,7.10
2018-03-27T21:51:38.598Z,7.20
2018-03-27T21:54:06.071Z,7.20
2018-03-27T21:56:33.509Z,7.10
2018-03-27T21:59:01.765Z,7.20
2018-03-27T22:01:29.206Z,7.20
2018-03-27T22:03:56.653Z,7.10
2018-03-27T22:06:25.955Z,7.10
2018-03-27T22:08:54.165Z,7.10
2018-03-27T22:11:21.628Z,7.10
2018-03-27T22:13:49.078Z,7.10
2018-03-27T22:16:17.312Z,7.20
2018-03-27T22:18:44.833Z,7.20
2018-03-27T22:21:13.051Z,7.30
2018-03-27T22:23:40.562Z,7.20
2018-03-27T22:26:08.014Z,7.30
2018-03-27T22:28:35.486Z,7.20
2018-03-27T22:31:02.934Z,7.30
2018-03-27T22:33:30.413Z,7.30
2018-03-27T22:35:57.857Z,7.20
2018-03-27T22:38:25.635Z,7.20
2018-03-27T22:40:53.086Z,7.20
2018-03-27T22:43:21.373Z,7.10
2018-03-27T22:45:49.618Z,7.10
2018-03-27T22:48:17.081Z,7.10
2018-03-27T22:50:44.554Z,7.10
2018-03-27T22:53:12.006Z,7.20
2018-03-27T22:55:39.466Z,7.10
2018-03-27T22:58:06.962Z,7.10
2018-03-27T23:00:34.446Z,7.20
2018-03-27T23:03:01.912Z,7.20
2018-03-27T23:05:29.357Z,7.20
2018-03-27T23:07:56.818Z,7.30
2018-03-27T23:10:24.275Z,7.40
2018-03-27T23:12:51.795Z,7.40
2018-03-27T23:15:19.258Z,7.50
2018-03-27T23:17:46.727Z,7.50
2018-03-27T23:20:14.177Z,7.50
2018-03-27T23:22:41.676Z,7.60
2018-03-27T23:25:09.198Z,7.60
2018-03-27T23:27:36.640Z,7.60
2018-03-27T23:30:04.106Z,7.70
2018-03-27T23:32:31.562Z,7.80
2018-03-27T23:34:59.039Z,7.80
2018-03-27T23:37:26.549Z,7.70
2018-03-27T23:39:54.148Z,7.70
2018-03-27T23:42:21.571Z,7.80
2018-03-27T23:44:49.802Z,7.80
2018-03-27T23:47:17.286Z,7.70
2018-03-27T23:49:44.738Z,7.70
2018-03-27T23:52:12.221Z,7.70
2018-03-27T23:54:39.693Z,7.70
2018-03-27T23:57:07.157Z,7.80
2018-03-27T23:59:34.608Z,7.90
